Baltimore, Maryland
Traffic Map
Current Weather Conditions
Baltimore, Maryland
Broken Clouds
Broken Clouds
23°
Feels Like: 23°
Wind Chill: 23° Ceiling: 25000
Heat Index: 23° Visibility: 10mi
Dew Point: 15° Wind: 0mph
Humidity: 72% Direction: ° ()
Pressure: 30.41in Gusts: 0mph
Raw Report DataKBWI 030654Z 00000KT 10SM BKN250 M05/M09 A3041 RMK AO2 SLP298 T10501094
Traffic Incident Summary
Active as of:
Severity:
Category:
InformationThere was an issue retrieving the traffic information for this location. Please try a different location or try again shortly.
Advertisements
Track Severe Weather on mobile